sensor_id;sensor_type;location;lat;lon;timestamp;P1;durP1;ratioP1;P2;durP2;ratioP2
66972;SDS011;53902;51.466;-2.586;2022-09-09T00:03:43;3.90;;;2.70;;
66972;SDS011;53902;51.466;-2.586;2022-09-09T00:06:27;3.83;;;2.42;;
66972;SDS011;53902;51.466;-2.586;2022-09-09T00:09:11;4.40;;;2.95;;
66972;SDS011;53902;51.466;-2.586;2022-09-09T00:11:43;3.35;;;2.70;;
66972;SDS011;53902;51.466;-2.586;2022-09-09T00:14:37;3.45;;;2.55;;
66972;SDS011;53902;51.466;-2.586;2022-09-09T00:17:12;3.33;;;2.65;;
66972;SDS011;53902;51.466;-2.586;2022-09-09T00:19:52;3.38;;;2.47;;
66972;SDS011;53902;51.466;-2.586;2022-09-09T00:23:00;5.88;;;2.38;;
66972;SDS011;53902;51.466;-2.586;2022-09-09T00:28:29;2.88;;;2.33;;
66972;SDS011;53902;51.466;-2.586;2022-09-09T00:30:59;2.22;;;1.85;;
66972;SDS011;53902;51.466;-2.586;2022-09-09T00:33:28;2.03;;;1.83;;
66972;SDS011;53902;51.466;-2.586;2022-09-09T00:35:58;2.10;;;1.90;;
66972;SDS011;53902;51.466;-2.586;2022-09-09T00:38:31;2.38;;;1.95;;
66972;SDS011;53902;51.466;-2.586;2022-09-09T00:43:40;1.60;;;1.50;;
66972;SDS011;53902;51.466;-2.586;2022-09-09T00:51:50;1.90;;;1.30;;
66972;SDS011;53902;51.466;-2.586;2022-09-09T00:59:34;1.30;;;1.20;;
66972;SDS011;53902;51.466;-2.586;2022-09-09T01:02:18;2.60;;;1.05;;
66972;SDS011;53902;51.466;-2.586;2022-09-09T01:04:55;1.58;;;1.10;;
66972;SDS011;53902;51.466;-2.586;2022-09-09T01:07:29;2.13;;;1.33;;
66972;SDS011;53902;51.466;-2.586;2022-09-09T01:09:59;2.08;;;1.13;;
66972;SDS011;53902;51.466;-2.586;2022-09-09T01:12:34;1.05;;;1.05;;
66972;SDS011;53902;51.466;-2.586;2022-09-09T01:15:12;1.67;;;1.20;;
66972;SDS011;53902;51.466;-2.586;2022-09-09T01:17:51;1.25;;;1.02;;
66972;SDS011;53902;51.466;-2.586;2022-09-09T01:31:33;3.78;;;1.05;;
66972;SDS011;53902;51.466;-2.586;2022-09-09T01:34:25;1.65;;;1.23;;
66972;SDS011;53902;51.466;-2.586;2022-09-09T01:36:58;1.55;;;1.27;;
66972;SDS011;53902;51.466;-2.586;2022-09-09T01:39:33;4.20;;;1.20;;
66972;SDS011;53902;51.466;-2.586;2022-09-09T01:42:00;3.55;;;1.20;;
66972;SDS011;53902;51.466;-2.586;2022-09-09T01:44:28;1.00;;;1.00;;
66972;SDS011;53902;51.466;-2.586;2022-09-09T01:46:54;2.95;;;1.20;;
66972;SDS011;53902;51.466;-2.586;2022-09-09T01:49:23;0.88;;;0.88;;
66972;SDS011;53902;51.466;-2.586;2022-09-09T01:51:52;1.90;;;1.30;;
66972;SDS011;53902;51.466;-2.586;2022-09-09T01:54:21;2.42;;;1.20;;
66972;SDS011;53902;51.466;-2.586;2022-09-09T02:05:38;2.90;;;0.90;;
66972;SDS011;53902;51.466;-2.586;2022-09-09T02:08:07;1.33;;;1.08;;
66972;SDS011;53902;51.466;-2.586;2022-09-09T02:13:16;1.50;;;1.27;;
66972;SDS011;53902;51.466;-2.586;2022-09-09T02:15:55;1.65;;;1.10;;
66972;SDS011;53902;51.466;-2.586;2022-09-09T02:21:13;2.55;;;1.30;;
66972;SDS011;53902;51.466;-2.586;2022-09-09T02:23:40;1.40;;;1.10;;
66972;SDS011;53902;51.466;-2.586;2022-09-09T02:26:07;2.47;;;1.40;;
66972;SDS011;53902;51.466;-2.586;2022-09-09T02:28:35;1.00;;;1.00;;
66972;SDS011;53902;51.466;-2.586;2022-09-09T02:33:28;1.63;;;1.20;;
66972;SDS011;53902;51.466;-2.586;2022-09-09T02:35:59;2.25;;;1.08;;
66972;SDS011;53902;51.466;-2.586;2022-09-09T02:38:28;3.60;;;0.80;;
66972;SDS011;53902;51.466;-2.586;2022-09-09T02:40:58;3.20;;;0.90;;
66972;SDS011;53902;51.466;-2.586;2022-09-09T02:43:24;2.13;;;1.10;;
66972;SDS011;53902;51.466;-2.586;2022-09-09T02:46:11;1.15;;;0.80;;
66972;SDS011;53902;51.466;-2.586;2022-09-09T02:48:59;1.77;;;0.80;;
66972;SDS011;53902;51.466;-2.586;2022-09-09T02:56:53;0.77;;;0.77;;
66972;SDS011;53902;51.466;-2.586;2022-09-09T03:07:46;1.38;;;0.90;;
66972;SDS011;53902;51.466;-2.586;2022-09-09T03:23:51;1.17;;;1.10;;
66972;SDS011;53902;51.466;-2.586;2022-09-09T03:46:57;0.88;;;0.88;;
66972;SDS011;53902;51.466;-2.586;2022-09-09T03:49:26;1.08;;;0.75;;
66972;SDS011;53902;51.466;-2.586;2022-09-09T03:51:56;1.00;;;0.90;;
66972;SDS011;53902;51.466;-2.586;2022-09-09T03:59:50;2.55;;;1.05;;
66972;SDS011;53902;51.466;-2.586;2022-09-09T04:02:15;2.15;;;1.02;;
66972;SDS011;53902;51.466;-2.586;2022-09-09T04:04:41;1.58;;;1.02;;
66972;SDS011;53902;51.466;-2.586;2022-09-09T04:07:08;3.15;;;1.15;;
66972;SDS011;53902;51.466;-2.586;2022-09-09T04:09:33;1.20;;;0.98;;
66972;SDS011;53902;51.466;-2.586;2022-09-09T04:11:59;0.82;;;0.82;;
66972;SDS011;53902;51.466;-2.586;2022-09-09T04:14:32;1.58;;;0.90;;
66972;SDS011;53902;51.466;-2.586;2022-09-09T04:17:01;0.98;;;0.98;;
66972;SDS011;53902;51.466;-2.586;2022-09-09T04:19:34;3.25;;;1.00;;
66972;SDS011;53902;51.466;-2.586;2022-09-09T04:22:03;0.93;;;0.93;;
66972;SDS011;53902;51.466;-2.586;2022-09-09T04:26:54;0.97;;;0.80;;
66972;SDS011;53902;51.466;-2.586;2022-09-09T04:53:33;0.75;;;0.75;;
66972;SDS011;53902;51.466;-2.586;2022-09-09T04:58:30;2.92;;;1.20;;
66972;SDS011;53902;51.466;-2.586;2022-09-09T05:01:02;0.60;;;0.60;;
66972;SDS011;53902;51.466;-2.586;2022-09-09T06:13:30;1.20;;;0.70;;
66972;SDS011;53902;51.466;-2.586;2022-09-09T06:31:34;0.98;;;0.75;;
66972;SDS011;53902;51.466;-2.586;2022-09-09T06:53:23;1.67;;;0.90;;
66972;SDS011;53902;51.466;-2.586;2022-09-09T06:55:49;0.55;;;0.55;;
66972;SDS011;53902;51.466;-2.586;2022-09-09T06:58:14;1.23;;;0.80;;
66972;SDS011;53902;51.466;-2.586;2022-09-09T07:00:40;3.08;;;1.00;;
66972;SDS011;53902;51.466;-2.586;2022-09-09T07:03:05;1.17;;;0.77;;
66972;SDS011;53902;51.466;-2.586;2022-09-09T07:05:31;3.20;;;0.80;;
66972;SDS011;53902;51.466;-2.586;2022-09-09T07:07:56;1.67;;;0.80;;
66972;SDS011;53902;51.466;-2.586;2022-09-09T07:10:22;3.85;;;1.00;;
66972;SDS011;53902;51.466;-2.586;2022-09-09T07:12:51;1.20;;;1.10;;
66972;SDS011;53902;51.466;-2.586;2022-09-09T07:15:20;1.65;;;1.00;;
66972;SDS011;53902;51.466;-2.586;2022-09-09T07:17:48;0.77;;;0.77;;
66972;SDS011;53902;51.466;-2.586;2022-09-09T07:20:13;1.92;;;0.85;;
66972;SDS011;53902;51.466;-2.586;2022-09-09T07:22:39;0.88;;;0.85;;
66972;SDS011;53902;51.466;-2.586;2022-09-09T07:25:05;1.02;;;0.80;;
66972;SDS011;53902;51.466;-2.586;2022-09-09T07:27:33;1.35;;;0.80;;
66972;SDS011;53902;51.466;-2.586;2022-09-09T07:30:02;0.77;;;0.70;;
66972;SDS011;53902;51.466;-2.586;2022-09-09T07:32:28;1.95;;;0.85;;
66972;SDS011;53902;51.466;-2.586;2022-09-09T07:34:55;2.38;;;1.10;;
66972;SDS011;53902;51.466;-2.586;2022-09-09T07:37:21;3.20;;;0.70;;
66972;SDS011;53902;51.466;-2.586;2022-09-09T07:39:46;1.25;;;0.80;;
66972;SDS011;53902;51.466;-2.586;2022-09-09T07:42:13;2.10;;;0.73;;
66972;SDS011;53902;51.466;-2.586;2022-09-09T07:44:39;1.20;;;0.85;;
66972;SDS011;53902;51.466;-2.586;2022-09-09T07:47:05;1.33;;;0.82;;
66972;SDS011;53902;51.466;-2.586;2022-09-09T07:49:31;2.33;;;0.77;;
66972;SDS011;53902;51.466;-2.586;2022-09-09T07:51:57;0.90;;;0.70;;
66972;SDS011;53902;51.466;-2.586;2022-09-09T07:54:23;2.58;;;1.20;;
66972;SDS011;53902;51.466;-2.586;2022-09-09T07:56:51;7.30;;;1.25;;
66972;SDS011;53902;51.466;-2.586;2022-09-09T07:59:19;1.88;;;0.88;;
66972;SDS011;53902;51.466;-2.586;2022-09-09T08:01:46;1.60;;;0.60;;
66972;SDS011;53902;51.466;-2.586;2022-09-09T08:04:16;0.82;;;0.60;;
66972;SDS011;53902;51.466;-2.586;2022-09-09T08:06:44;1.05;;;0.70;;
66972;SDS011;53902;51.466;-2.586;2022-09-09T08:09:21;1.35;;;0.60;;
66972;SDS011;53902;51.466;-2.586;2022-09-09T08:11:51;1.58;;;0.88;;
66972;SDS011;53902;51.466;-2.586;2022-09-09T08:14:21;0.52;;;0.50;;
66972;SDS011;53902;51.466;-2.586;2022-09-09T08:16:48;1.15;;;0.60;;
66972;SDS011;53902;51.466;-2.586;2022-09-09T08:21:43;2.10;;;0.70;;
66972;SDS011;53902;51.466;-2.586;2022-09-09T08:24:09;0.82;;;0.65;;
66972;SDS011;53902;51.466;-2.586;2022-09-09T08:26:37;1.50;;;0.50;;
66972;SDS011;53902;51.466;-2.586;2022-09-09T08:29:08;0.50;;;0.50;;
66972;SDS011;53902;51.466;-2.586;2022-09-09T08:31:53;0.50;;;0.50;;
66972;SDS011;53902;51.466;-2.586;2022-09-09T08:34:22;1.58;;;0.55;;
66972;SDS011;53902;51.466;-2.586;2022-09-09T08:36:48;1.17;;;0.68;;
66972;SDS011;53902;51.466;-2.586;2022-09-09T08:39:15;1.13;;;0.75;;
66972;SDS011;53902;51.466;-2.586;2022-09-09T08:52:31;0.90;;;0.50;;
66972;SDS011;53902;51.466;-2.586;2022-09-09T08:57:57;0.75;;;0.60;;
66972;SDS011;53902;51.466;-2.586;2022-09-09T09:00:29;1.45;;;0.70;;
66972;SDS011;53902;51.466;-2.586;2022-09-09T09:12:00;0.47;;;0.47;;
66972;SDS011;53902;51.466;-2.586;2022-09-09T09:14:31;0.50;;;0.50;;
66972;SDS011;53902;51.466;-2.586;2022-09-09T09:17:15;0.93;;;0.47;;
66972;SDS011;53902;51.466;-2.586;2022-09-09T09:19:45;1.42;;;0.73;;
66972;SDS011;53902;51.466;-2.586;2022-09-09T09:24:54;1.25;;;0.60;;
66972;SDS011;53902;51.466;-2.586;2022-09-09T09:30:56;1.45;;;0.52;;
66972;SDS011;53902;51.466;-2.586;2022-09-09T09:36:11;0.35;;;0.32;;
66972;SDS011;53902;51.466;-2.586;2022-09-09T09:38:40;0.75;;;0.52;;
66972;SDS011;53902;51.466;-2.586;2022-09-09T09:44:24;0.60;;;0.50;;
66972;SDS011;53902;51.466;-2.586;2022-09-09T09:46:50;4.68;;;0.88;;
66972;SDS011;53902;51.466;-2.586;2022-09-09T09:49:19;1.30;;;0.70;;
66972;SDS011;53902;51.466;-2.586;2022-09-09T09:51:44;0.77;;;0.50;;
66972;SDS011;53902;51.466;-2.586;2022-09-09T09:54:17;1.98;;;0.50;;
66972;SDS011;53902;51.466;-2.586;2022-09-09T09:56:53;1.88;;;0.70;;
66972;SDS011;53902;51.466;-2.586;2022-09-09T10:02:18;0.98;;;0.73;;
66972;SDS011;53902;51.466;-2.586;2022-09-09T10:04:59;0.50;;;0.50;;
66972;SDS011;53902;51.466;-2.586;2022-09-09T10:09:57;0.60;;;0.60;;
66972;SDS011;53902;51.466;-2.586;2022-09-09T10:22:39;2.17;;;0.50;;
66972;SDS011;53902;51.466;-2.586;2022-09-09T10:25:16;1.65;;;0.60;;
66972;SDS011;53902;51.466;-2.586;2022-09-09T10:36:32;1.52;;;0.77;;
66972;SDS011;53902;51.466;-2.586;2022-09-09T10:42:07;1.20;;;0.80;;
66972;SDS011;53902;51.466;-2.586;2022-09-09T10:55:35;0.90;;;0.68;;
66972;SDS011;53902;51.466;-2.586;2022-09-09T10:58:10;1.83;;;1.17;;
66972;SDS011;53902;51.466;-2.586;2022-09-09T11:00:44;2.85;;;1.27;;
66972;SDS011;53902;51.466;-2.586;2022-09-09T11:06:16;1.55;;;0.80;;
66972;SDS011;53902;51.466;-2.586;2022-09-09T11:08:49;0.65;;;0.65;;
66972;SDS011;53902;51.466;-2.586;2022-09-09T11:11:25;1.75;;;0.90;;
66972;SDS011;53902;51.466;-2.586;2022-09-09T11:17:09;1.08;;;0.80;;
66972;SDS011;53902;51.466;-2.586;2022-09-09T11:22:08;1.33;;;1.00;;
66972;SDS011;53902;51.466;-2.586;2022-09-09T11:24:47;1.02;;;0.77;;
66972;SDS011;53902;51.466;-2.586;2022-09-09T11:27:20;2.33;;;0.80;;
66972;SDS011;53902;51.466;-2.586;2022-09-09T11:30:05;1.15;;;0.88;;
66972;SDS011;53902;51.466;-2.586;2022-09-09T11:40:53;1.70;;;0.93;;
66972;SDS011;53902;51.466;-2.586;2022-09-09T11:43:40;1.77;;;0.60;;
66972;SDS011;53902;51.466;-2.586;2022-09-09T11:46:15;0.80;;;0.80;;
66972;SDS011;53902;51.466;-2.586;2022-09-09T11:49:00;1.15;;;0.77;;
66972;SDS011;53902;51.466;-2.586;2022-09-09T11:51:28;0.75;;;0.75;;
66972;SDS011;53902;51.466;-2.586;2022-09-09T11:56:30;1.25;;;0.70;;
66972;SDS011;53902;51.466;-2.586;2022-09-09T11:59:20;0.80;;;0.80;;
66972;SDS011;53902;51.466;-2.586;2022-09-09T12:02:09;2.25;;;0.80;;
66972;SDS011;53902;51.466;-2.586;2022-09-09T12:04:58;2.15;;;0.90;;
66972;SDS011;53902;51.466;-2.586;2022-09-09T12:12:35;2.03;;;1.20;;
66972;SDS011;53902;51.466;-2.586;2022-09-09T12:15:17;1.20;;;1.10;;
66972;SDS011;53902;51.466;-2.586;2022-09-09T12:17:53;2.08;;;1.20;;
66972;SDS011;53902;51.466;-2.586;2022-09-09T12:28:17;3.17;;;1.48;;
66972;SDS011;53902;51.466;-2.586;2022-09-09T12:30:49;1.73;;;1.13;;
66972;SDS011;53902;51.466;-2.586;2022-09-09T12:33:33;0.85;;;0.80;;
66972;SDS011;53902;51.466;-2.586;2022-09-09T12:36:02;1.70;;;0.82;;
66972;SDS011;53902;51.466;-2.586;2022-09-09T12:38:37;1.33;;;0.80;;
66972;SDS011;53902;51.466;-2.586;2022-09-09T12:41:04;0.70;;;0.70;;
66972;SDS011;53902;51.466;-2.586;2022-09-09T12:43:42;0.70;;;0.70;;
66972;SDS011;53902;51.466;-2.586;2022-09-09T12:46:11;0.60;;;0.60;;
66972;SDS011;53902;51.466;-2.586;2022-09-09T12:48:47;2.15;;;0.75;;
66972;SDS011;53902;51.466;-2.586;2022-09-09T12:51:21;1.70;;;1.23;;
66972;SDS011;53902;51.466;-2.586;2022-09-09T12:53:50;0.85;;;0.57;;
66972;SDS011;53902;51.466;-2.586;2022-09-09T12:56:20;0.63;;;0.63;;
66972;SDS011;53902;51.466;-2.586;2022-09-09T12:58:48;0.60;;;0.60;;
66972;SDS011;53902;51.466;-2.586;2022-09-09T13:03:58;1.67;;;0.70;;
66972;SDS011;53902;51.466;-2.586;2022-09-09T13:06:25;1.50;;;0.80;;
66972;SDS011;53902;51.466;-2.586;2022-09-09T13:08:57;2.15;;;0.90;;
66972;SDS011;53902;51.466;-2.586;2022-09-09T13:11:30;1.00;;;0.98;;
66972;SDS011;53902;51.466;-2.586;2022-09-09T13:14:03;3.92;;;1.20;;
66972;SDS011;53902;51.466;-2.586;2022-09-09T13:16:29;4.27;;;1.00;;
66972;SDS011;53902;51.466;-2.586;2022-09-09T13:18:57;2.63;;;1.30;;
66972;SDS011;53902;51.466;-2.586;2022-09-09T13:21:48;2.30;;;1.30;;
66972;SDS011;53902;51.466;-2.586;2022-09-09T13:24:28;1.52;;;1.30;;
66972;SDS011;53902;51.466;-2.586;2022-09-09T13:27:01;2.92;;;1.67;;
66972;SDS011;53902;51.466;-2.586;2022-09-09T13:29:29;1.33;;;1.08;;
66972;SDS011;53902;51.466;-2.586;2022-09-09T13:32:12;1.95;;;1.48;;
66972;SDS011;53902;51.466;-2.586;2022-09-09T13:34:49;2.28;;;1.30;;
66972;SDS011;53902;51.466;-2.586;2022-09-09T13:37:31;2.67;;;1.83;;
66972;SDS011;53902;51.466;-2.586;2022-09-09T13:40:02;2.03;;;1.52;;
66972;SDS011;53902;51.466;-2.586;2022-09-09T13:42:31;4.25;;;1.60;;
66972;SDS011;53902;51.466;-2.586;2022-09-09T13:45:02;2.05;;;1.38;;
66972;SDS011;53902;51.466;-2.586;2022-09-09T13:47:35;5.88;;;1.52;;
66972;SDS011;53902;51.466;-2.586;2022-09-09T13:52:46;4.90;;;1.20;;
66972;SDS011;53902;51.466;-2.586;2022-09-09T13:55:16;1.75;;;1.10;;
66972;SDS011;53902;51.466;-2.586;2022-09-09T13:57:52;3.90;;;1.38;;
66972;SDS011;53902;51.466;-2.586;2022-09-09T14:00:18;1.58;;;1.00;;
66972;SDS011;53902;51.466;-2.586;2022-09-09T14:02:44;1.77;;;1.00;;
66972;SDS011;53902;51.466;-2.586;2022-09-09T14:05:10;1.30;;;1.20;;
66972;SDS011;53902;51.466;-2.586;2022-09-09T14:07:40;1.48;;;1.30;;
66972;SDS011;53902;51.466;-2.586;2022-09-09T14:10:09;1.17;;;1.02;;
66972;SDS011;53902;51.466;-2.586;2022-09-09T14:12:37;1.75;;;1.10;;
66972;SDS011;53902;51.466;-2.586;2022-09-09T14:15:06;2.33;;;1.40;;
66972;SDS011;53902;51.466;-2.586;2022-09-09T14:17:35;1.52;;;1.13;;
66972;SDS011;53902;51.466;-2.586;2022-09-09T14:20:02;4.67;;;1.63;;
66972;SDS011;53902;51.466;-2.586;2022-09-09T14:22:33;2.78;;;1.48;;
66972;SDS011;53902;51.466;-2.586;2022-09-09T14:25:01;1.07;;;1.07;;
66972;SDS011;53902;51.466;-2.586;2022-09-09T14:27:27;2.17;;;0.98;;
66972;SDS011;53902;51.466;-2.586;2022-09-09T14:29:53;0.80;;;0.80;;
66972;SDS011;53902;51.466;-2.586;2022-09-09T14:32:19;1.30;;;0.90;;
66972;SDS011;53902;51.466;-2.586;2022-09-09T14:34:47;0.93;;;0.80;;
66972;SDS011;53902;51.466;-2.586;2022-09-09T14:37:21;1.02;;;0.93;;
66972;SDS011;53902;51.466;-2.586;2022-09-09T14:39:47;1.37;;;0.80;;
66972;SDS011;53902;51.466;-2.586;2022-09-09T14:42:15;0.90;;;0.82;;
66972;SDS011;53902;51.466;-2.586;2022-09-09T14:44:43;1.87;;;1.13;;
66972;SDS011;53902;51.466;-2.586;2022-09-09T14:47:08;1.27;;;1.15;;
66972;SDS011;53902;51.466;-2.586;2022-09-09T14:49:34;1.53;;;1.20;;
66972;SDS011;53902;51.466;-2.586;2022-09-09T14:52:00;1.02;;;1.02;;
66972;SDS011;53902;51.466;-2.586;2022-09-09T14:54:26;2.63;;;1.52;;
66972;SDS011;53902;51.466;-2.586;2022-09-09T14:56:53;1.52;;;1.33;;
66972;SDS011;53902;51.466;-2.586;2022-09-09T14:59:18;1.67;;;1.40;;
66972;SDS011;53902;51.466;-2.586;2022-09-09T15:01:44;1.13;;;1.10;;
66972;SDS011;53902;51.466;-2.586;2022-09-09T15:04:10;1.73;;;1.10;;
66972;SDS011;53902;51.466;-2.586;2022-09-09T15:06:37;1.77;;;0.95;;
66972;SDS011;53902;51.466;-2.586;2022-09-09T15:09:07;1.17;;;1.08;;
66972;SDS011;53902;51.466;-2.586;2022-09-09T15:11:34;1.67;;;1.00;;
66972;SDS011;53902;51.466;-2.586;2022-09-09T15:14:04;2.47;;;1.02;;
66972;SDS011;53902;51.466;-2.586;2022-09-09T15:16:30;0.70;;;0.70;;
66972;SDS011;53902;51.466;-2.586;2022-09-09T15:18:57;2.10;;;0.90;;
66972;SDS011;53902;51.466;-2.586;2022-09-09T15:21:25;0.80;;;0.80;;
66972;SDS011;53902;51.466;-2.586;2022-09-09T15:23:51;1.52;;;0.82;;
66972;SDS011;53902;51.466;-2.586;2022-09-09T15:26:20;0.80;;;0.80;;
66972;SDS011;53902;51.466;-2.586;2022-09-09T15:28:46;2.27;;;1.10;;
66972;SDS011;53902;51.466;-2.586;2022-09-09T15:31:31;1.15;;;0.82;;
66972;SDS011;53902;51.466;-2.586;2022-09-09T15:33:57;1.48;;;1.27;;
66972;SDS011;53902;51.466;-2.586;2022-09-09T15:36:31;2.85;;;1.25;;
66972;SDS011;53902;51.466;-2.586;2022-09-09T15:39:00;3.50;;;1.00;;
66972;SDS011;53902;51.466;-2.586;2022-09-09T15:41:27;1.77;;;1.10;;
66972;SDS011;53902;51.466;-2.586;2022-09-09T15:43:54;3.92;;;1.50;;
66972;SDS011;53902;51.466;-2.586;2022-09-09T15:48:57;3.15;;;1.65;;
66972;SDS011;53902;51.466;-2.586;2022-09-09T15:51:24;3.88;;;1.38;;
66972;SDS011;53902;51.466;-2.586;2022-09-09T15:53:54;3.42;;;1.38;;
66972;SDS011;53902;51.466;-2.586;2022-09-09T15:56:23;4.25;;;1.70;;
66972;SDS011;53902;51.466;-2.586;2022-09-09T15:58:52;1.58;;;0.90;;
66972;SDS011;53902;51.466;-2.586;2022-09-09T16:01:18;2.80;;;1.30;;
66972;SDS011;53902;51.466;-2.586;2022-09-09T16:03:44;2.22;;;0.98;;
66972;SDS011;53902;51.466;-2.586;2022-09-09T16:06:12;1.05;;;1.00;;
66972;SDS011;53902;51.466;-2.586;2022-09-09T16:08:43;2.25;;;0.98;;
66972;SDS011;53902;51.466;-2.586;2022-09-09T16:13:40;2.60;;;1.45;;
66972;SDS011;53902;51.466;-2.586;2022-09-09T16:16:12;5.65;;;1.83;;
66972;SDS011;53902;51.466;-2.586;2022-09-09T16:18:42;4.28;;;1.67;;
66972;SDS011;53902;51.466;-2.586;2022-09-09T16:21:15;4.13;;;1.73;;
66972;SDS011;53902;51.466;-2.586;2022-09-09T16:23:42;1.92;;;0.85;;
66972;SDS011;53902;51.466;-2.586;2022-09-09T16:26:11;2.40;;;0.95;;
66972;SDS011;53902;51.466;-2.586;2022-09-09T16:31:17;0.95;;;0.85;;
66972;SDS011;53902;51.466;-2.586;2022-09-09T16:33:44;0.80;;;0.70;;
66972;SDS011;53902;51.466;-2.586;2022-09-09T16:36:11;1.33;;;0.90;;
66972;SDS011;53902;51.466;-2.586;2022-09-09T16:38:39;3.20;;;0.80;;
66972;SDS011;53902;51.466;-2.586;2022-09-09T16:41:04;1.87;;;0.70;;
66972;SDS011;53902;51.466;-2.586;2022-09-09T16:43:33;1.55;;;0.70;;
66972;SDS011;53902;51.466;-2.586;2022-09-09T16:46:00;0.60;;;0.60;;
66972;SDS011;53902;51.466;-2.586;2022-09-09T16:48:30;0.80;;;0.68;;
66972;SDS011;53902;51.466;-2.586;2022-09-09T16:51:02;0.98;;;0.60;;
66972;SDS011;53902;51.466;-2.586;2022-09-09T16:53:34;0.82;;;0.68;;
66972;SDS011;53902;51.466;-2.586;2022-09-09T16:58:56;1.48;;;1.25;;
66972;SDS011;53902;51.466;-2.586;2022-09-09T17:01:26;1.77;;;0.90;;
66972;SDS011;53902;51.466;-2.586;2022-09-09T17:03:58;4.22;;;1.65;;
66972;SDS011;53902;51.466;-2.586;2022-09-09T17:06:28;1.50;;;1.10;;
66972;SDS011;53902;51.466;-2.586;2022-09-09T17:08:55;1.65;;;1.30;;
66972;SDS011;53902;51.466;-2.586;2022-09-09T17:11:22;2.72;;;1.30;;
66972;SDS011;53902;51.466;-2.586;2022-09-09T17:13:48;2.33;;;1.35;;
66972;SDS011;53902;51.466;-2.586;2022-09-09T17:16:17;1.60;;;1.50;;
66972;SDS011;53902;51.466;-2.586;2022-09-09T17:18:45;2.90;;;1.70;;
66972;SDS011;53902;51.466;-2.586;2022-09-09T17:21:15;2.13;;;1.50;;
66972;SDS011;53902;51.466;-2.586;2022-09-09T17:23:45;2.83;;;1.90;;
66972;SDS011;53902;51.466;-2.586;2022-09-09T17:26:12;2.53;;;1.80;;
66972;SDS011;53902;51.466;-2.586;2022-09-09T17:28:42;2.15;;;1.52;;
66972;SDS011;53902;51.466;-2.586;2022-09-09T17:31:09;2.47;;;1.35;;
66972;SDS011;53902;51.466;-2.586;2022-09-09T17:33:36;1.80;;;1.40;;
66972;SDS011;53902;51.466;-2.586;2022-09-09T17:36:11;2.40;;;1.50;;
66972;SDS011;53902;51.466;-2.586;2022-09-09T17:38:42;2.00;;;1.42;;
66972;SDS011;53902;51.466;-2.586;2022-09-09T17:41:29;1.90;;;1.52;;
66972;SDS011;53902;51.466;-2.586;2022-09-09T17:43:58;3.90;;;1.73;;
66972;SDS011;53902;51.466;-2.586;2022-09-09T17:46:28;2.50;;;1.53;;
66972;SDS011;53902;51.466;-2.586;2022-09-09T17:48:56;3.35;;;1.60;;
66972;SDS011;53902;51.466;-2.586;2022-09-09T17:51:23;2.80;;;1.63;;
66972;SDS011;53902;51.466;-2.586;2022-09-09T17:53:52;4.05;;;1.95;;
66972;SDS011;53902;51.466;-2.586;2022-09-09T17:56:20;4.07;;;1.83;;
66972;SDS011;53902;51.466;-2.586;2022-09-09T17:58:46;2.53;;;1.73;;
66972;SDS011;53902;51.466;-2.586;2022-09-09T18:01:15;3.80;;;1.63;;
66972;SDS011;53902;51.466;-2.586;2022-09-09T18:03:46;3.25;;;1.80;;
66972;SDS011;53902;51.466;-2.586;2022-09-09T18:06:23;3.65;;;2.03;;
66972;SDS011;53902;51.466;-2.586;2022-09-09T18:08:52;2.70;;;2.40;;
66972;SDS011;53902;51.466;-2.586;2022-09-09T18:11:20;2.85;;;1.92;;
66972;SDS011;53902;51.466;-2.586;2022-09-09T18:13:51;3.65;;;2.53;;
66972;SDS011;53902;51.466;-2.586;2022-09-09T18:16:23;4.90;;;2.50;;
66972;SDS011;53902;51.466;-2.586;2022-09-09T18:19:03;3.90;;;2.40;;
66972;SDS011;53902;51.466;-2.586;2022-09-09T18:24:12;4.40;;;2.58;;
66972;SDS011;53902;51.466;-2.586;2022-09-09T18:29:18;2.70;;;1.88;;
66972;SDS011;53902;51.466;-2.586;2022-09-09T18:31:49;3.08;;;1.23;;
66972;SDS011;53902;51.466;-2.586;2022-09-09T18:34:19;3.13;;;1.30;;
66972;SDS011;53902;51.466;-2.586;2022-09-09T18:36:50;1.38;;;1.15;;
66972;SDS011;53902;51.466;-2.586;2022-09-09T18:39:19;2.00;;;0.90;;
66972;SDS011;53902;51.466;-2.586;2022-09-09T18:44:13;1.88;;;1.10;;
66972;SDS011;53902;51.466;-2.586;2022-09-09T18:46:40;2.50;;;1.17;;
66972;SDS011;53902;51.466;-2.586;2022-09-09T18:49:06;2.13;;;1.53;;
66972;SDS011;53902;51.466;-2.586;2022-09-09T18:51:32;2.43;;;1.20;;
66972;SDS011;53902;51.466;-2.586;2022-09-09T18:54:00;1.80;;;1.63;;
66972;SDS011;53902;51.466;-2.586;2022-09-09T18:56:28;3.22;;;1.30;;
66972;SDS011;53902;51.466;-2.586;2022-09-09T18:58:55;1.67;;;1.20;;
66972;SDS011;53902;51.466;-2.586;2022-09-09T19:01:22;1.80;;;1.00;;
66972;SDS011;53902;51.466;-2.586;2022-09-09T19:03:48;1.70;;;1.43;;
66972;SDS011;53902;51.466;-2.586;2022-09-09T19:06:15;1.33;;;1.20;;
66972;SDS011;53902;51.466;-2.586;2022-09-09T19:08:45;2.13;;;1.10;;
66972;SDS011;53902;51.466;-2.586;2022-09-09T19:11:12;2.30;;;1.52;;
66972;SDS011;53902;51.466;-2.586;2022-09-09T19:14:05;2.30;;;1.25;;
66972;SDS011;53902;51.466;-2.586;2022-09-09T19:16:35;2.33;;;1.50;;
66972;SDS011;53902;51.466;-2.586;2022-09-09T19:19:02;1.45;;;1.35;;
66972;SDS011;53902;51.466;-2.586;2022-09-09T19:21:31;2.38;;;1.38;;
66972;SDS011;53902;51.466;-2.586;2022-09-09T19:24:02;4.22;;;1.58;;
66972;SDS011;53902;51.466;-2.586;2022-09-09T19:26:31;1.92;;;1.73;;
66972;SDS011;53902;51.466;-2.586;2022-09-09T19:28:59;2.75;;;2.00;;
66972;SDS011;53902;51.466;-2.586;2022-09-09T19:31:25;4.23;;;2.70;;
66972;SDS011;53902;51.466;-2.586;2022-09-09T19:33:54;4.03;;;2.17;;
66972;SDS011;53902;51.466;-2.586;2022-09-09T19:36:20;3.23;;;2.20;;
66972;SDS011;53902;51.466;-2.586;2022-09-09T19:38:49;2.65;;;1.90;;
66972;SDS011;53902;51.466;-2.586;2022-09-09T19:41:19;2.60;;;1.80;;
66972;SDS011;53902;51.466;-2.586;2022-09-09T19:43:47;3.00;;;1.80;;
66972;SDS011;53902;51.466;-2.586;2022-09-09T19:48:41;1.95;;;1.70;;
66972;SDS011;53902;51.466;-2.586;2022-09-09T19:51:07;2.53;;;1.85;;
66972;SDS011;53902;51.466;-2.586;2022-09-09T19:53:45;2.83;;;1.70;;
66972;SDS011;53902;51.466;-2.586;2022-09-09T19:56:15;3.58;;;1.80;;
66972;SDS011;53902;51.466;-2.586;2022-09-09T19:58:41;4.93;;;2.00;;
66972;SDS011;53902;51.466;-2.586;2022-09-09T20:03:43;2.95;;;2.10;;
66972;SDS011;53902;51.466;-2.586;2022-09-09T20:06:11;2.78;;;2.25;;
66972;SDS011;53902;51.466;-2.586;2022-09-09T20:08:38;3.58;;;2.30;;
66972;SDS011;53902;51.466;-2.586;2022-09-09T20:11:04;3.47;;;2.20;;
66972;SDS011;53902;51.466;-2.586;2022-09-09T20:13:32;2.80;;;2.40;;
66972;SDS011;53902;51.466;-2.586;2022-09-09T20:16:12;3.80;;;2.58;;
66972;SDS011;53902;51.466;-2.586;2022-09-09T20:18:44;4.90;;;2.70;;
66972;SDS011;53902;51.466;-2.586;2022-09-09T20:21:19;3.08;;;2.17;;
66972;SDS011;53902;51.466;-2.586;2022-09-09T20:23:47;3.28;;;2.45;;
66972;SDS011;53902;51.466;-2.586;2022-09-09T20:26:14;2.83;;;2.35;;
66972;SDS011;53902;51.466;-2.586;2022-09-09T20:28:48;3.95;;;2.47;;
66972;SDS011;53902;51.466;-2.586;2022-09-09T20:31:15;4.30;;;2.42;;
66972;SDS011;53902;51.466;-2.586;2022-09-09T20:33:44;7.10;;;2.72;;
66972;SDS011;53902;51.466;-2.586;2022-09-09T20:36:13;5.00;;;3.05;;
66972;SDS011;53902;51.466;-2.586;2022-09-09T20:38:55;3.40;;;2.40;;
66972;SDS011;53902;51.466;-2.586;2022-09-09T20:41:25;3.75;;;2.80;;
66972;SDS011;53902;51.466;-2.586;2022-09-09T20:44:03;5.28;;;2.65;;
66972;SDS011;53902;51.466;-2.586;2022-09-09T20:46:33;3.53;;;2.45;;
66972;SDS011;53902;51.466;-2.586;2022-09-09T20:49:00;3.97;;;2.40;;
66972;SDS011;53902;51.466;-2.586;2022-09-09T20:51:27;4.13;;;2.50;;
66972;SDS011;53902;51.466;-2.586;2022-09-09T20:56:22;3.38;;;2.28;;
66972;SDS011;53902;51.466;-2.586;2022-09-09T20:58:48;3.97;;;2.38;;
66972;SDS011;53902;51.466;-2.586;2022-09-09T21:01:14;3.08;;;2.55;;
66972;SDS011;53902;51.466;-2.586;2022-09-09T21:03:41;3.22;;;2.40;;
66972;SDS011;53902;51.466;-2.586;2022-09-09T21:06:09;3.40;;;2.65;;